sensor_id;sensor_type;location;lat;lon;timestamp;P1;durP1;ratioP1;P2;durP2;ratioP2
11111;SDS011;5609;49.466;8.468;2023-04-07T00:00:38;10.97;;;9.87;;
11111;SDS011;5609;49.466;8.468;2023-04-07T00:03:05;10.50;;;9.40;;
11111;SDS011;5609;49.466;8.468;2023-04-07T00:05:34;11.07;;;10.00;;
11111;SDS011;5609;49.466;8.468;2023-04-07T00:08:00;11.13;;;10.10;;
11111;SDS011;5609;49.466;8.468;2023-04-07T00:10:27;11.53;;;10.33;;
11111;SDS011;5609;49.466;8.468;2023-04-07T00:12:54;11.33;;;10.20;;
11111;SDS011;5609;49.466;8.468;2023-04-07T00:15:20;12.10;;;10.97;;
11111;SDS011;5609;49.466;8.468;2023-04-07T00:17:47;10.83;;;9.83;;
11111;SDS011;5609;49.466;8.468;2023-04-07T00:20:14;11.30;;;10.17;;
11111;SDS011;5609;49.466;8.468;2023-04-07T00:22:42;10.83;;;9.77;;
11111;SDS011;5609;49.466;8.468;2023-04-07T00:25:09;11.57;;;10.37;;
11111;SDS011;5609;49.466;8.468;2023-04-07T00:27:36;11.47;;;10.27;;
11111;SDS011;5609;49.466;8.468;2023-04-07T00:30:03;11.77;;;10.67;;
11111;SDS011;5609;49.466;8.468;2023-04-07T00:32:30;11.53;;;10.47;;
11111;SDS011;5609;49.466;8.468;2023-04-07T00:34:57;12.13;;;10.93;;
11111;SDS011;5609;49.466;8.468;2023-04-07T00:37:24;11.37;;;10.27;;
11111;SDS011;5609;49.466;8.468;2023-04-07T00:39:52;11.70;;;10.50;;
11111;SDS011;5609;49.466;8.468;2023-04-07T00:42:20;11.50;;;10.30;;
11111;SDS011;5609;49.466;8.468;2023-04-07T00:44:46;11.80;;;10.60;;
11111;SDS011;5609;49.466;8.468;2023-04-07T00:47:13;13.63;;;10.90;;
11111;SDS011;5609;49.466;8.468;2023-04-07T00:49:40;11.43;;;10.30;;
11111;SDS011;5609;49.466;8.468;2023-04-07T00:52:07;11.47;;;10.37;;
11111;SDS011;5609;49.466;8.468;2023-04-07T00:54:36;11.07;;;9.93;;
11111;SDS011;5609;49.466;8.468;2023-04-07T00:57:04;11.20;;;10.10;;
11111;SDS011;5609;49.466;8.468;2023-04-07T00:59:32;11.27;;;10.10;;
11111;SDS011;5609;49.466;8.468;2023-04-07T01:02:01;11.23;;;10.13;;
11111;SDS011;5609;49.466;8.468;2023-04-07T01:04:34;11.50;;;10.30;;
11111;SDS011;5609;49.466;8.468;2023-04-07T01:07:08;12.40;;;11.20;;
11111;SDS011;5609;49.466;8.468;2023-04-07T01:09:42;11.13;;;10.03;;
11111;SDS011;5609;49.466;8.468;2023-04-07T01:12:14;11.20;;;10.10;;
11111;SDS011;5609;49.466;8.468;2023-04-07T01:14:50;11.03;;;10.00;;
11111;SDS011;5609;49.466;8.468;2023-04-07T01:17:19;11.63;;;10.43;;
11111;SDS011;5609;49.466;8.468;2023-04-07T01:19:50;11.47;;;10.37;;
11111;SDS011;5609;49.466;8.468;2023-04-07T01:22:22;12.03;;;10.30;;
11111;SDS011;5609;49.466;8.468;2023-04-07T01:25:01;11.60;;;10.50;;
11111;SDS011;5609;49.466;8.468;2023-04-07T01:27:57;11.20;;;10.17;;
11111;SDS011;5609;49.466;8.468;2023-04-07T01:30:39;11.30;;;10.20;;
11111;SDS011;5609;49.466;8.468;2023-04-07T01:33:08;11.77;;;10.63;;
11111;SDS011;5609;49.466;8.468;2023-04-07T01:35:36;12.70;;;11.40;;
11111;SDS011;5609;49.466;8.468;2023-04-07T01:38:06;11.73;;;10.53;;
11111;SDS011;5609;49.466;8.468;2023-04-07T01:40:34;11.50;;;10.37;;
11111;SDS011;5609;49.466;8.468;2023-04-07T01:43:02;12.27;;;10.93;;
11111;SDS011;5609;49.466;8.468;2023-04-07T01:45:29;12.30;;;11.10;;
11111;SDS011;5609;49.466;8.468;2023-04-07T01:48:00;11.30;;;10.20;;
11111;SDS011;5609;49.466;8.468;2023-04-07T01:50:30;12.73;;;10.80;;
11111;SDS011;5609;49.466;8.468;2023-04-07T01:52:57;11.77;;;10.67;;
11111;SDS011;5609;49.466;8.468;2023-04-07T01:55:24;12.80;;;11.60;;
11111;SDS011;5609;49.466;8.468;2023-04-07T01:57:52;11.87;;;10.77;;
11111;SDS011;5609;49.466;8.468;2023-04-07T02:00:18;13.13;;;11.53;;
11111;SDS011;5609;49.466;8.468;2023-04-07T02:02:45;12.20;;;10.90;;
11111;SDS011;5609;49.466;8.468;2023-04-07T02:05:16;11.90;;;10.63;;
11111;SDS011;5609;49.466;8.468;2023-04-07T02:07:46;12.20;;;10.90;;
11111;SDS011;5609;49.466;8.468;2023-04-07T02:10:18;12.00;;;10.17;;
11111;SDS011;5609;49.466;8.468;2023-04-07T02:12:47;11.37;;;10.27;;
11111;SDS011;5609;49.466;8.468;2023-04-07T02:15:15;11.87;;;10.77;;
11111;SDS011;5609;49.466;8.468;2023-04-07T02:17:43;11.43;;;10.33;;
11111;SDS011;5609;49.466;8.468;2023-04-07T02:20:12;11.80;;;10.60;;
11111;SDS011;5609;49.466;8.468;2023-04-07T02:22:41;11.93;;;10.73;;
11111;SDS011;5609;49.466;8.468;2023-04-07T02:25:22;12.00;;;10.70;;
11111;SDS011;5609;49.466;8.468;2023-04-07T02:27:50;12.33;;;10.83;;
11111;SDS011;5609;49.466;8.468;2023-04-07T02:30:17;11.43;;;10.27;;
11111;SDS011;5609;49.466;8.468;2023-04-07T02:32:44;12.03;;;10.83;;
11111;SDS011;5609;49.466;8.468;2023-04-07T02:35:11;12.10;;;10.90;;
11111;SDS011;5609;49.466;8.468;2023-04-07T02:37:37;12.33;;;11.03;;
11111;SDS011;5609;49.466;8.468;2023-04-07T02:40:06;12.13;;;10.93;;
11111;SDS011;5609;49.466;8.468;2023-04-07T02:42:34;11.50;;;10.40;;
11111;SDS011;5609;49.466;8.468;2023-04-07T02:45:01;12.43;;;11.17;;
11111;SDS011;5609;49.466;8.468;2023-04-07T02:47:28;12.00;;;10.87;;
11111;SDS011;5609;49.466;8.468;2023-04-07T02:49:55;12.03;;;10.90;;
11111;SDS011;5609;49.466;8.468;2023-04-07T02:52:22;11.60;;;10.50;;
11111;SDS011;5609;49.466;8.468;2023-04-07T02:54:48;12.73;;;11.43;;
11111;SDS011;5609;49.466;8.468;2023-04-07T02:57:16;11.93;;;10.73;;
11111;SDS011;5609;49.466;8.468;2023-04-07T02:59:43;11.90;;;10.70;;
11111;SDS011;5609;49.466;8.468;2023-04-07T03:02:10;12.60;;;11.30;;
11111;SDS011;5609;49.466;8.468;2023-04-07T03:04:37;12.27;;;10.87;;
11111;SDS011;5609;49.466;8.468;2023-04-07T03:07:04;12.07;;;10.77;;
11111;SDS011;5609;49.466;8.468;2023-04-07T03:09:30;13.07;;;11.67;;
11111;SDS011;5609;49.466;8.468;2023-04-07T03:11:57;13.00;;;10.93;;
11111;SDS011;5609;49.466;8.468;2023-04-07T03:14:25;11.97;;;10.77;;
11111;SDS011;5609;49.466;8.468;2023-04-07T03:16:52;12.30;;;11.10;;
11111;SDS011;5609;49.466;8.468;2023-04-07T03:19:19;11.93;;;10.83;;
11111;SDS011;5609;49.466;8.468;2023-04-07T03:21:45;12.13;;;10.93;;
11111;SDS011;5609;49.466;8.468;2023-04-07T03:24:12;12.57;;;11.27;;
11111;SDS011;5609;49.466;8.468;2023-04-07T03:26:39;12.20;;;11.00;;
11111;SDS011;5609;49.466;8.468;2023-04-07T03:29:06;12.03;;;10.83;;
11111;SDS011;5609;49.466;8.468;2023-04-07T03:31:34;12.47;;;11.17;;
11111;SDS011;5609;49.466;8.468;2023-04-07T03:34:01;12.03;;;10.90;;
11111;SDS011;5609;49.466;8.468;2023-04-07T03:36:28;11.77;;;10.60;;
11111;SDS011;5609;49.466;8.468;2023-04-07T03:38:55;12.53;;;11.33;;
11111;SDS011;5609;49.466;8.468;2023-04-07T03:41:22;12.50;;;11.30;;
11111;SDS011;5609;49.466;8.468;2023-04-07T03:43:49;11.80;;;10.60;;
11111;SDS011;5609;49.466;8.468;2023-04-07T03:46:17;11.27;;;9.97;;
11111;SDS011;5609;49.466;8.468;2023-04-07T03:48:45;12.20;;;10.90;;
11111;SDS011;5609;49.466;8.468;2023-04-07T03:51:12;11.13;;;10.13;;
11111;SDS011;5609;49.466;8.468;2023-04-07T03:53:39;11.77;;;10.57;;
11111;SDS011;5609;49.466;8.468;2023-04-07T03:56:06;11.17;;;10.07;;
11111;SDS011;5609;49.466;8.468;2023-04-07T03:58:33;11.03;;;10.03;;
11111;SDS011;5609;49.466;8.468;2023-04-07T04:00:59;10.97;;;9.97;;
11111;SDS011;5609;49.466;8.468;2023-04-07T04:03:26;11.60;;;10.40;;
11111;SDS011;5609;49.466;8.468;2023-04-07T04:05:54;11.63;;;10.53;;
11111;SDS011;5609;49.466;8.468;2023-04-07T04:08:21;10.87;;;9.80;;
11111;SDS011;5609;49.466;8.468;2023-04-07T04:10:48;11.13;;;10.03;;
11111;SDS011;5609;49.466;8.468;2023-04-07T04:13:15;11.33;;;10.17;;
11111;SDS011;5609;49.466;8.468;2023-04-07T04:15:41;10.70;;;9.60;;
11111;SDS011;5609;49.466;8.468;2023-04-07T04:18:08;11.30;;;10.20;;
11111;SDS011;5609;49.466;8.468;2023-04-07T04:20:35;11.90;;;10.70;;
11111;SDS011;5609;49.466;8.468;2023-04-07T04:23:03;12.20;;;11.07;;
11111;SDS011;5609;49.466;8.468;2023-04-07T04:25:30;10.73;;;9.73;;
11111;SDS011;5609;49.466;8.468;2023-04-07T04:27:57;11.30;;;10.20;;
11111;SDS011;5609;49.466;8.468;2023-04-07T04:30:23;12.17;;;10.97;;
11111;SDS011;5609;49.466;8.468;2023-04-07T04:32:50;11.60;;;10.40;;
11111;SDS011;5609;49.466;8.468;2023-04-07T04:35:17;11.10;;;10.00;;
11111;SDS011;5609;49.466;8.468;2023-04-07T04:37:44;11.50;;;10.40;;
11111;SDS011;5609;49.466;8.468;2023-04-07T04:40:12;11.57;;;10.47;;
11111;SDS011;5609;49.466;8.468;2023-04-07T04:42:39;12.00;;;10.80;;
11111;SDS011;5609;49.466;8.468;2023-04-07T04:45:06;12.10;;;10.90;;
11111;SDS011;5609;49.466;8.468;2023-04-07T04:47:34;11.57;;;10.40;;
11111;SDS011;5609;49.466;8.468;2023-04-07T04:50:03;12.00;;;10.80;;
11111;SDS011;5609;49.466;8.468;2023-04-07T04:52:30;10.83;;;9.83;;
11111;SDS011;5609;49.466;8.468;2023-04-07T04:54:57;11.80;;;10.60;;
11111;SDS011;5609;49.466;8.468;2023-04-07T04:57:25;11.80;;;10.63;;
11111;SDS011;5609;49.466;8.468;2023-04-07T04:59:52;11.83;;;10.63;;
11111;SDS011;5609;49.466;8.468;2023-04-07T05:02:19;11.73;;;10.60;;
11111;SDS011;5609;49.466;8.468;2023-04-07T05:04:46;11.87;;;10.67;;
11111;SDS011;5609;49.466;8.468;2023-04-07T05:07:13;12.17;;;10.97;;
11111;SDS011;5609;49.466;8.468;2023-04-07T05:09:39;12.77;;;11.57;;
11111;SDS011;5609;49.466;8.468;2023-04-07T05:12:06;11.37;;;10.27;;
11111;SDS011;5609;49.466;8.468;2023-04-07T05:14:34;11.87;;;10.67;;
11111;SDS011;5609;49.466;8.468;2023-04-07T05:17:01;11.70;;;10.60;;
11111;SDS011;5609;49.466;8.468;2023-04-07T05:19:27;11.80;;;10.60;;
11111;SDS011;5609;49.466;8.468;2023-04-07T05:21:54;12.23;;;11.03;;
11111;SDS011;5609;49.466;8.468;2023-04-07T05:24:21;11.70;;;10.50;;
11111;SDS011;5609;49.466;8.468;2023-04-07T05:26:50;12.13;;;10.90;;
11111;SDS011;5609;49.466;8.468;2023-04-07T05:29:16;12.23;;;11.03;;
11111;SDS011;5609;49.466;8.468;2023-04-07T05:31:44;12.13;;;10.93;;
11111;SDS011;5609;49.466;8.468;2023-04-07T05:34:11;12.30;;;10.90;;
11111;SDS011;5609;49.466;8.468;2023-04-07T05:36:38;12.20;;;11.00;;
11111;SDS011;5609;49.466;8.468;2023-04-07T05:39:05;12.10;;;10.97;;
11111;SDS011;5609;49.466;8.468;2023-04-07T05:41:32;12.27;;;11.00;;
11111;SDS011;5609;49.466;8.468;2023-04-07T05:43:58;12.03;;;10.93;;
11111;SDS011;5609;49.466;8.468;2023-04-07T05:46:25;11.70;;;10.50;;
11111;SDS011;5609;49.466;8.468;2023-04-07T05:48:54;11.87;;;10.73;;
11111;SDS011;5609;49.466;8.468;2023-04-07T05:51:21;12.00;;;10.80;;
11111;SDS011;5609;49.466;8.468;2023-04-07T05:53:48;12.20;;;10.77;;
11111;SDS011;5609;49.466;8.468;2023-04-07T05:56:14;11.70;;;10.50;;
11111;SDS011;5609;49.466;8.468;2023-04-07T05:58:41;11.20;;;10.10;;
11111;SDS011;5609;49.466;8.468;2023-04-07T06:01:08;11.73;;;10.33;;
11111;SDS011;5609;49.466;8.468;2023-04-07T06:03:35;12.00;;;10.80;;
11111;SDS011;5609;49.466;8.468;2023-04-07T06:06:03;10.73;;;9.63;;
11111;SDS011;5609;49.466;8.468;2023-04-07T06:08:30;11.73;;;10.27;;
11111;SDS011;5609;49.466;8.468;2023-04-07T06:10:56;11.37;;;10.20;;
11111;SDS011;5609;49.466;8.468;2023-04-07T06:13:23;11.53;;;10.33;;
11111;SDS011;5609;49.466;8.468;2023-04-07T06:15:50;11.53;;;10.37;;
11111;SDS011;5609;49.466;8.468;2023-04-07T06:18:17;11.43;;;10.30;;
11111;SDS011;5609;49.466;8.468;2023-04-07T06:20:43;11.27;;;10.17;;
11111;SDS011;5609;49.466;8.468;2023-04-07T06:23:11;12.20;;;10.77;;
11111;SDS011;5609;49.466;8.468;2023-04-07T06:25:38;11.40;;;10.30;;
11111;SDS011;5609;49.466;8.468;2023-04-07T06:28:05;11.63;;;10.53;;
11111;SDS011;5609;49.466;8.468;2023-04-07T06:30:32;12.57;;;11.33;;
11111;SDS011;5609;49.466;8.468;2023-04-07T06:32:59;11.03;;;10.00;;
11111;SDS011;5609;49.466;8.468;2023-04-07T06:35:26;12.17;;;10.97;;
11111;SDS011;5609;49.466;8.468;2023-04-07T06:37:53;11.57;;;10.40;;
11111;SDS011;5609;49.466;8.468;2023-04-07T06:40:21;12.23;;;11.03;;
11111;SDS011;5609;49.466;8.468;2023-04-07T06:42:47;11.93;;;10.83;;
11111;SDS011;5609;49.466;8.468;2023-04-07T06:45:14;11.63;;;10.53;;
11111;SDS011;5609;49.466;8.468;2023-04-07T06:47:41;11.70;;;10.50;;
11111;SDS011;5609;49.466;8.468;2023-04-07T06:50:08;11.40;;;10.30;;
11111;SDS011;5609;49.466;8.468;2023-04-07T06:52:34;11.33;;;10.23;;
11111;SDS011;5609;49.466;8.468;2023-04-07T06:55:01;11.63;;;10.43;;
11111;SDS011;5609;49.466;8.468;2023-04-07T06:57:29;11.47;;;10.37;;
11111;SDS011;5609;49.466;8.468;2023-04-07T06:59:56;11.03;;;9.93;;
11111;SDS011;5609;49.466;8.468;2023-04-07T07:02:23;11.53;;;10.43;;
11111;SDS011;5609;49.466;8.468;2023-04-07T07:04:49;11.50;;;10.37;;
11111;SDS011;5609;49.466;8.468;2023-04-07T07:07:16;10.80;;;9.70;;
11111;SDS011;5609;49.466;8.468;2023-04-07T07:09:43;10.70;;;9.70;;
11111;SDS011;5609;49.466;8.468;2023-04-07T07:12:09;11.30;;;10.20;;
11111;SDS011;5609;49.466;8.468;2023-04-07T07:14:38;10.80;;;9.80;;
11111;SDS011;5609;49.466;8.468;2023-04-07T07:17:04;10.87;;;9.87;;
11111;SDS011;5609;49.466;8.468;2023-04-07T07:19:31;11.13;;;10.03;;
11111;SDS011;5609;49.466;8.468;2023-04-07T07:21:58;10.60;;;9.50;;
11111;SDS011;5609;49.466;8.468;2023-04-07T07:24:28;10.77;;;9.67;;
11111;SDS011;5609;49.466;8.468;2023-04-07T07:26:54;10.23;;;9.23;;
11111;SDS011;5609;49.466;8.468;2023-04-07T07:29:21;9.47;;;8.53;;
11111;SDS011;5609;49.466;8.468;2023-04-07T07:31:50;10.20;;;9.20;;
11111;SDS011;5609;49.466;8.468;2023-04-07T07:34:16;9.90;;;8.90;;
11111;SDS011;5609;49.466;8.468;2023-04-07T07:36:43;9.27;;;8.33;;
11111;SDS011;5609;49.466;8.468;2023-04-07T07:39:10;9.80;;;8.80;;
11111;SDS011;5609;49.466;8.468;2023-04-07T07:41:38;9.53;;;8.63;;
11111;SDS011;5609;49.466;8.468;2023-04-07T07:44:05;9.63;;;8.60;;
11111;SDS011;5609;49.466;8.468;2023-04-07T07:46:32;9.27;;;8.30;;
11111;SDS011;5609;49.466;8.468;2023-04-07T07:49:00;8.63;;;7.63;;
11111;SDS011;5609;49.466;8.468;2023-04-07T07:51:26;8.47;;;7.67;;
11111;SDS011;5609;49.466;8.468;2023-04-07T07:53:53;8.03;;;7.33;;
11111;SDS011;5609;49.466;8.468;2023-04-07T07:56:20;9.17;;;8.27;;
11111;SDS011;5609;49.466;8.468;2023-04-07T07:58:47;8.73;;;7.63;;
11111;SDS011;5609;49.466;8.468;2023-04-07T08:01:14;7.83;;;7.03;;
11111;SDS011;5609;49.466;8.468;2023-04-07T08:03:41;7.67;;;6.90;;
11111;SDS011;5609;49.466;8.468;2023-04-07T08:06:09;7.60;;;6.90;;
11111;SDS011;5609;49.466;8.468;2023-04-07T08:08:37;6.97;;;6.27;;
11111;SDS011;5609;49.466;8.468;2023-04-07T08:11:04;7.30;;;6.40;;
11111;SDS011;5609;49.466;8.468;2023-04-07T08:13:30;8.27;;;6.77;;
11111;SDS011;5609;49.466;8.468;2023-04-07T08:15:57;7.33;;;6.50;;
11111;SDS011;5609;49.466;8.468;2023-04-07T08:18:24;7.13;;;6.33;;
11111;SDS011;5609;49.466;8.468;2023-04-07T08:20:50;9.23;;;6.30;;
11111;SDS011;5609;49.466;8.468;2023-04-07T08:23:19;7.37;;;6.37;;
11111;SDS011;5609;49.466;8.468;2023-04-07T08:25:45;7.73;;;6.40;;
11111;SDS011;5609;49.466;8.468;2023-04-07T08:28:12;8.57;;;6.80;;
11111;SDS011;5609;49.466;8.468;2023-04-07T08:30:39;8.73;;;6.53;;
11111;SDS011;5609;49.466;8.468;2023-04-07T08:33:06;8.00;;;7.20;;
11111;SDS011;5609;49.466;8.468;2023-04-07T08:35:33;7.47;;;6.63;;
11111;SDS011;5609;49.466;8.468;2023-04-07T08:38:00;7.10;;;6.40;;
11111;SDS011;5609;49.466;8.468;2023-04-07T08:40:29;10.07;;;6.67;;
11111;SDS011;5609;49.466;8.468;2023-04-07T08:42:57;9.63;;;6.60;;
11111;SDS011;5609;49.466;8.468;2023-04-07T08:45:25;7.77;;;6.70;;
11111;SDS011;5609;49.466;8.468;2023-04-07T08:47:54;7.60;;;6.80;;
11111;SDS011;5609;49.466;8.468;2023-04-07T08:50:21;9.17;;;7.73;;
11111;SDS011;5609;49.466;8.468;2023-04-07T08:52:52;8.07;;;7.27;;
11111;SDS011;5609;49.466;8.468;2023-04-07T08:55:20;8.67;;;7.60;;
11111;SDS011;5609;49.466;8.468;2023-04-07T08:57:48;7.40;;;6.60;;
11111;SDS011;5609;49.466;8.468;2023-04-07T09:00:16;8.83;;;7.27;;
11111;SDS011;5609;49.466;8.468;2023-04-07T09:02:43;7.60;;;6.80;;
11111;SDS011;5609;49.466;8.468;2023-04-07T09:05:12;7.57;;;6.77;;
11111;SDS011;5609;49.466;8.468;2023-04-07T09:07:39;4.97;;;4.57;;
11111;SDS011;5609;49.466;8.468;2023-04-07T09:10:07;6.53;;;5.83;;
11111;SDS011;5609;49.466;8.468;2023-04-07T09:12:35;4.77;;;4.30;;
11111;SDS011;5609;49.466;8.468;2023-04-07T09:15:03;6.30;;;4.50;;
11111;SDS011;5609;49.466;8.468;2023-04-07T09:17:32;5.77;;;4.10;;
11111;SDS011;5609;49.466;8.468;2023-04-07T09:19:59;5.20;;;4.80;;
11111;SDS011;5609;49.466;8.468;2023-04-07T09:22:35;5.37;;;4.60;;
11111;SDS011;5609;49.466;8.468;2023-04-07T09:25:10;7.03;;;4.97;;
11111;SDS011;5609;49.466;8.468;2023-04-07T09:27:52;6.57;;;4.90;;
11111;SDS011;5609;49.466;8.468;2023-04-07T09:30:21;5.77;;;4.83;;
11111;SDS011;5609;49.466;8.468;2023-04-07T09:32:48;4.87;;;4.40;;
11111;SDS011;5609;49.466;8.468;2023-04-07T09:35:15;4.40;;;4.00;;
11111;SDS011;5609;49.466;8.468;2023-04-07T09:37:42;6.43;;;4.43;;
11111;SDS011;5609;49.466;8.468;2023-04-07T09:40:09;4.17;;;3.77;;
11111;SDS011;5609;49.466;8.468;2023-04-07T09:42:43;4.23;;;3.83;;
11111;SDS011;5609;49.466;8.468;2023-04-07T09:45:10;4.83;;;4.43;;
11111;SDS011;5609;49.466;8.468;2023-04-07T09:47:38;5.80;;;5.20;;
11111;SDS011;5609;49.466;8.468;2023-04-07T09:50:05;13.00;;;11.63;;
11111;SDS011;5609;49.466;8.468;2023-04-07T09:52:49;4.87;;;4.37;;
11111;SDS011;5609;49.466;8.468;2023-04-07T09:55:18;4.50;;;4.10;;
11111;SDS011;5609;49.466;8.468;2023-04-07T09:57:46;4.83;;;4.43;;
11111;SDS011;5609;49.466;8.468;2023-04-07T10:00:14;4.97;;;4.57;;
11111;SDS011;5609;49.466;8.468;2023-04-07T10:02:43;5.63;;;5.00;;
11111;SDS011;5609;49.466;8.468;2023-04-07T10:05:10;4.60;;;4.20;;
11111;SDS011;5609;49.466;8.468;2023-04-07T10:07:37;4.03;;;3.63;;
11111;SDS011;5609;49.466;8.468;2023-04-07T10:10:05;3.80;;;3.37;;
11111;SDS011;5609;49.466;8.468;2023-04-07T10:12:33;4.40;;;3.73;;
11111;SDS011;5609;49.466;8.468;2023-04-07T10:15:00;3.00;;;2.80;;
11111;SDS011;5609;49.466;8.468;2023-04-07T10:17:27;3.90;;;3.13;;
11111;SDS011;5609;49.466;8.468;2023-04-07T10:19:55;3.50;;;3.20;;
11111;SDS011;5609;49.466;8.468;2023-04-07T10:22:24;3.30;;;2.70;;
11111;SDS011;5609;49.466;8.468;2023-04-07T10:24:53;2.90;;;2.00;;
11111;SDS011;5609;49.466;8.468;2023-04-07T10:27:27;2.00;;;1.80;;
11111;SDS011;5609;49.466;8.468;2023-04-07T10:29:56;2.03;;;1.83;;
11111;SDS011;5609;49.466;8.468;2023-04-07T10:32:25;1.40;;;1.30;;
11111;SDS011;5609;49.466;8.468;2023-04-07T10:34:58;1.87;;;1.40;;
11111;SDS011;5609;49.466;8.468;2023-04-07T10:37:25;3.97;;;2.77;;
11111;SDS011;5609;49.466;8.468;2023-04-07T10:42:53;3.50;;;3.17;;
11111;SDS011;5609;49.466;8.468;2023-04-07T10:48:20;4.70;;;4.10;;
11111;SDS011;5609;49.466;8.468;2023-04-07T10:57:06;4.13;;;3.83;;
11111;SDS011;5609;49.466;8.468;2023-04-07T10:59:37;3.60;;;3.30;;
11111;SDS011;5609;49.466;8.468;2023-04-07T11:04:59;2.80;;;2.60;;
11111;SDS011;5609;49.466;8.468;2023-04-07T11:07:42;3.10;;;2.67;;
11111;SDS011;5609;49.466;8.468;2023-04-07T11:10:16;2.73;;;2.53;;
11111;SDS011;5609;49.466;8.468;2023-04-07T11:12:43;2.87;;;2.30;;
11111;SDS011;5609;49.466;8.468;2023-04-07T11:15:23;2.87;;;2.23;;
11111;SDS011;5609;49.466;8.468;2023-04-07T11:18:07;2.30;;;2.10;;
11111;SDS011;5609;49.466;8.468;2023-04-07T11:20:39;2.70;;;2.50;;
11111;SDS011;5609;49.466;8.468;2023-04-07T11:23:07;2.77;;;2.57;;
11111;SDS011;5609;49.466;8.468;2023-04-07T11:25:35;2.57;;;2.37;;
11111;SDS011;5609;49.466;8.468;2023-04-07T11:28:02;3.70;;;3.20;;
11111;SDS011;5609;49.466;8.468;2023-04-07T11:30:29;4.17;;;3.87;;
11111;SDS011;5609;49.466;8.468;2023-04-07T11:32:56;4.07;;;3.67;;
11111;SDS011;5609;49.466;8.468;2023-04-07T11:35:23;2.40;;;2.20;;
11111;SDS011;5609;49.466;8.468;2023-04-07T11:37:55;2.37;;;2.17;;
11111;SDS011;5609;49.466;8.468;2023-04-07T11:40:32;2.83;;;2.50;;
11111;SDS011;5609;49.466;8.468;2023-04-07T11:43:02;2.00;;;1.90;;
11111;SDS011;5609;49.466;8.468;2023-04-07T11:45:40;1.90;;;1.80;;
11111;SDS011;5609;49.466;8.468;2023-04-07T11:50:52;2.50;;;2.30;;
11111;SDS011;5609;49.466;8.468;2023-04-07T11:53:26;2.77;;;2.57;;
11111;SDS011;5609;49.466;8.468;2023-04-07T11:56:01;2.97;;;2.77;;
11111;SDS011;5609;49.466;8.468;2023-04-07T11:58:29;2.60;;;2.40;;
11111;SDS011;5609;49.466;8.468;2023-04-07T12:00:57;3.30;;;3.10;;
11111;SDS011;5609;49.466;8.468;2023-04-07T12:03:28;2.70;;;2.50;;
11111;SDS011;5609;49.466;8.468;2023-04-07T12:05:55;2.90;;;2.70;;
11111;SDS011;5609;49.466;8.468;2023-04-07T12:08:29;3.60;;;3.30;;
11111;SDS011;5609;49.466;8.468;2023-04-07T12:11:04;3.80;;;3.40;;
11111;SDS011;5609;49.466;8.468;2023-04-07T12:13:31;3.67;;;3.17;;
11111;SDS011;5609;49.466;8.468;2023-04-07T12:15:58;3.20;;;2.90;;
11111;SDS011;5609;49.466;8.468;2023-04-07T12:18:26;2.70;;;2.50;;
11111;SDS011;5609;49.466;8.468;2023-04-07T12:20:53;2.77;;;2.53;;
11111;SDS011;5609;49.466;8.468;2023-04-07T12:23:20;3.07;;;2.87;;
11111;SDS011;5609;49.466;8.468;2023-04-07T12:25:47;3.10;;;2.90;;
11111;SDS011;5609;49.466;8.468;2023-04-07T12:28:15;3.60;;;3.30;;
11111;SDS011;5609;49.466;8.468;2023-04-07T12:30:42;3.63;;;3.33;;
11111;SDS011;5609;49.466;8.468;2023-04-07T12:33:09;3.40;;;3.10;;
11111;SDS011;5609;49.466;8.468;2023-04-07T12:35:35;3.87;;;3.50;;
11111;SDS011;5609;49.466;8.468;2023-04-07T12:38:03;4.33;;;3.93;;
11111;SDS011;5609;49.466;8.468;2023-04-07T12:40:30;3.00;;;2.80;;
11111;SDS011;5609;49.466;8.468;2023-04-07T12:42:58;2.93;;;2.63;;
11111;SDS011;5609;49.466;8.468;2023-04-07T12:45:27;3.77;;;3.33;;
11111;SDS011;5609;49.466;8.468;2023-04-07T12:47:55;4.07;;;3.60;;
11111;SDS011;5609;49.466;8.468;2023-04-07T12:50:22;4.03;;;3.60;;
11111;SDS011;5609;49.466;8.468;2023-04-07T12:52:49;4.73;;;4.33;;
11111;SDS011;5609;49.466;8.468;2023-04-07T12:55:16;4.70;;;3.80;;
11111;SDS011;5609;49.466;8.468;2023-04-07T12:57:42;3.83;;;3.33;;
11111;SDS011;5609;49.466;8.468;2023-04-07T13:00:10;4.23;;;3.80;;
11111;SDS011;5609;49.466;8.468;2023-04-07T13:02:38;7.63;;;6.83;;
11111;SDS011;5609;49.466;8.468;2023-04-07T13:05:06;4.97;;;4.30;;
11111;SDS011;5609;49.466;8.468;2023-04-07T13:07:33;4.33;;;3.90;;
11111;SDS011;5609;49.466;8.468;2023-04-07T13:10:00;3.90;;;3.50;;
11111;SDS011;5609;49.466;8.468;2023-04-07T13:12:27;3.80;;;3.47;;
11111;SDS011;5609;49.466;8.468;2023-04-07T13:14:54;4.30;;;3.90;;
11111;SDS011;5609;49.466;8.468;2023-04-07T13:17:21;3.77;;;3.47;;
11111;SDS011;5609;49.466;8.468;2023-04-07T13:19:49;3.47;;;3.17;;
11111;SDS011;5609;49.466;8.468;2023-04-07T13:22:16;4.43;;;4.03;;
11111;SDS011;5609;49.466;8.468;2023-04-07T13:24:43;3.33;;;3.03;;
11111;SDS011;5609;49.466;8.468;2023-04-07T13:27:10;4.10;;;3.70;;
11111;SDS011;5609;49.466;8.468;2023-04-07T13:29:37;3.30;;;3.10;;
11111;SDS011;5609;49.466;8.468;2023-04-07T13:32:04;3.77;;;3.47;;
11111;SDS011;5609;49.466;8.468;2023-04-07T13:34:31;6.70;;;5.67;;
11111;SDS011;5609;49.466;8.468;2023-04-07T13:37:01;4.40;;;4.00;;
11111;SDS011;5609;49.466;8.468;2023-04-07T13:39:28;4.60;;;4.20;;
11111;SDS011;5609;49.466;8.468;2023-04-07T13:41:55;4.13;;;3.73;;
11111;SDS011;5609;49.466;8.468;2023-04-07T13:44:22;4.70;;;4.30;;
11111;SDS011;5609;49.466;8.468;2023-04-07T13:46:50;5.00;;;4.60;;
11111;SDS011;5609;49.466;8.468;2023-04-07T13:49:17;5.53;;;4.93;;
11111;SDS011;5609;49.466;8.468;2023-04-07T13:51:44;5.60;;;5.10;;
11111;SDS011;5609;49.466;8.468;2023-04-07T13:54:12;4.93;;;4.53;;
11111;SDS011;5609;49.466;8.468;2023-04-07T13:56:39;5.63;;;5.13;;
11111;SDS011;5609;49.466;8.468;2023-04-07T13:59:06;4.27;;;3.87;;
11111;SDS011;5609;49.466;8.468;2023-04-07T14:01:33;3.77;;;3.47;;
11111;SDS011;5609;49.466;8.468;2023-04-07T14:04:03;5.03;;;4.63;;
11111;SDS011;5609;49.466;8.468;2023-04-07T14:06:30;3.80;;;3.50;;
11111;SDS011;5609;49.466;8.468;2023-04-07T14:08:57;4.10;;;3.70;;
11111;SDS011;5609;49.466;8.468;2023-04-07T14:11:25;3.60;;;3.30;;
11111;SDS011;5609;49.466;8.468;2023-04-07T14:13:53;3.47;;;3.17;;
11111;SDS011;5609;49.466;8.468;2023-04-07T14:16:20;3.90;;;3.60;;
11111;SDS011;5609;49.466;8.468;2023-04-07T14:18:47;4.37;;;4.03;;
11111;SDS011;5609;49.466;8.468;2023-04-07T14:21:15;4.00;;;3.70;;
11111;SDS011;5609;49.466;8.468;2023-04-07T14:23:42;3.40;;;3.20;;
11111;SDS011;5609;49.466;8.468;2023-04-07T14:26:09;3.53;;;3.23;;
11111;SDS011;5609;49.466;8.468;2023-04-07T14:28:37;4.50;;;4.10;;
11111;SDS011;5609;49.466;8.468;2023-04-07T14:31:04;3.80;;;3.50;;
11111;SDS011;5609;49.466;8.468;2023-04-07T14:33:31;3.77;;;3.47;;
11111;SDS011;5609;49.466;8.468;2023-04-07T14:35:58;3.87;;;3.57;;
11111;SDS011;5609;49.466;8.468;2023-04-07T14:38:24;4.23;;;3.93;;
11111;SDS011;5609;49.466;8.468;2023-04-07T14:40:51;3.93;;;3.63;;
11111;SDS011;5609;49.466;8.468;2023-04-07T14:43:18;3.70;;;3.40;;
11111;SDS011;5609;49.466;8.468;2023-04-07T14:45:46;3.60;;;3.30;;
11111;SDS011;5609;49.466;8.468;2023-04-07T14:48:13;3.90;;;3.37;;
11111;SDS011;5609;49.466;8.468;2023-04-07T14:50:41;3.10;;;2.90;;
11111;SDS011;5609;49.466;8.468;2023-04-07T14:53:07;3.73;;;3.30;;
11111;SDS011;5609;49.466;8.468;2023-04-07T14:55:34;3.47;;;3.27;;
11111;SDS011;5609;49.466;8.468;2023-04-07T14:58:01;3.40;;;3.10;;
11111;SDS011;5609;49.466;8.468;2023-04-07T15:00:28;3.70;;;3.40;;
11111;SDS011;5609;49.466;8.468;2023-04-07T15:02:56;3.17;;;2.87;;
11111;SDS011;5609;49.466;8.468;2023-04-07T15:05:22;3.50;;;3.20;;
11111;SDS011;5609;49.466;8.468;2023-04-07T15:07:50;3.83;;;3.53;;
11111;SDS011;5609;49.466;8.468;2023-04-07T15:10:16;3.30;;;3.07;;